Terminal Aerodrome Forecast
Issued by NWS Mt. Holly, NJ

Home | Current Version | Previous Version | Text Only | Print | Product List | Glossary On
Versions: 1 2 3 4 5 6 7 8 9 10 11 12 13 14 15 16 17 18 19 20
962
FTUS41 KPHI 251133
TAFACY
TAF
KACY 251133Z 2512/2612 17007KT 3SM BR SCT002 BKN015
      TEMPO 2512/2515 1/2SM FG OVC002
     FM251500 17012G22KT P6SM SCT020 BKN035
      TEMPO 2522/2524 27016G30KT 3SM TSRA OVC020CB
     FM260000 29012G20KT P6SM VCSH OVC050
     FM260200 29012G22KT P6SM SCT040=

USA.gov is the U.S. government's official web portal to all federal, state and local government web resources and services.